createdAt,value
2023-04-22T00:00:48.369Z,1012.9
2023-04-22T00:02:04.104Z,1012.9
2023-04-22T00:03:20.591Z,1012.9
2023-04-22T00:04:37.070Z,1012.9
2023-04-22T00:05:53.544Z,1012.9
2023-04-22T00:07:10.035Z,1012.9
2023-04-22T00:09:42.991Z,1012.8
2023-04-22T00:10:59.470Z,1012.8
2023-04-22T00:12:15.956Z,1012.8
2023-04-22T00:13:32.435Z,1012.8
2023-04-22T00:14:48.916Z,1012.8
2023-04-22T00:16:05.390Z,1012.8
2023-04-22T00:17:21.862Z,1012.7
2023-04-22T00:18:37.611Z,1012.7
2023-04-22T00:19:54.088Z,1012.7
2023-04-22T00:21:10.571Z,1012.7
2023-04-22T00:22:27.056Z,1012.6
2023-04-22T00:23:43.539Z,1012.6
2023-04-22T00:25:00.013Z,1012.6
2023-04-22T00:26:16.486Z,1012.6
2023-04-22T00:27:32.985Z,1012.6
2023-04-22T00:28:49.447Z,1012.6
2023-04-22T00:30:05.971Z,1012.6
2023-04-22T00:31:22.419Z,1012.6
2023-04-22T00:32:38.895Z,1012.6
2023-04-22T00:33:55.380Z,1012.6
2023-04-22T00:35:11.113Z,1012.5
2023-04-22T00:36:27.611Z,1012.5
2023-04-22T00:37:44.087Z,1012.5
2023-04-22T00:39:00.599Z,1012.6
2023-04-22T00:40:17.051Z,1012.6
2023-04-22T00:41:33.528Z,1012.5
2023-04-22T00:42:50.004Z,1012.5
2023-04-22T00:44:06.483Z,1012.5
2023-04-22T00:45:22.957Z,1012.5
2023-04-22T00:46:39.447Z,1012.5
2023-04-22T00:47:55.958Z,1012.5
2023-04-22T00:49:12.403Z,1012.4
2023-04-22T00:50:28.878Z,1012.5
2023-04-22T00:51:44.622Z,1012.5
2023-04-22T00:53:01.101Z,1012.4
2023-04-22T00:54:17.589Z,1012.5
2023-04-22T00:55:34.075Z,1012.4
2023-04-22T00:56:50.543Z,1012.4
2023-04-22T00:58:07.032Z,1012.4
2023-04-22T00:59:23.515Z,1012.4
2023-04-22T01:00:39.983Z,1012.4
2023-04-22T01:01:56.463Z,1012.5
2023-04-22T01:03:12.953Z,1012.4
2023-04-22T01:04:29.430Z,1012.4
2023-04-22T01:05:45.900Z,1012.4
2023-04-22T01:07:02.426Z,1012.4
2023-04-22T01:08:18.138Z,1012.4
2023-04-22T01:09:34.611Z,1012.4
2023-04-22T01:10:51.107Z,1012.3
2023-04-22T01:12:07.582Z,1012.4
2023-04-22T01:14:40.537Z,1012.4
2023-04-22T01:15:57.055Z,1012.3
2023-04-22T01:17:13.491Z,1012.4
2023-04-22T01:18:29.984Z,1012.3
2023-04-22T01:19:46.457Z,1012.4
2023-04-22T01:21:02.944Z,1012.3
2023-04-22T01:22:19.418Z,1012.3
2023-04-22T01:23:35.897Z,1012.3
2023-04-22T01:24:51.654Z,1012.3
2023-04-22T01:26:08.121Z,1012.3
2023-04-22T01:27:24.598Z,1012.3
2023-04-22T01:28:41.098Z,1012.3
2023-04-22T01:29:57.556Z,1012.3
2023-04-22T01:31:14.050Z,1012.3
2023-04-22T01:32:30.533Z,1012.2
2023-04-22T01:33:47.010Z,1012.3
2023-04-22T01:35:03.475Z,1012.3
2023-04-22T01:36:19.963Z,1012.3
2023-04-22T01:37:36.450Z,1012.2
2023-04-22T01:38:52.927Z,1012.2
2023-04-22T01:40:09.397Z,1012.3
2023-04-22T01:41:25.143Z,1012.2
2023-04-22T01:42:41.632Z,1012.3
2023-04-22T01:43:58.151Z,1012.3
2023-04-22T01:45:14.606Z,1012.2
2023-04-22T01:46:31.081Z,1012.2
2023-04-22T01:47:47.570Z,1012.2
2023-04-22T01:49:04.049Z,1012.2
2023-04-22T01:50:20.531Z,1012.2
2023-04-22T01:52:53.511Z,1012.2
2023-04-22T01:55:26.454Z,1012.1
2023-04-22T01:56:42.913Z,1012.1
2023-04-22T01:57:58.676Z,1012.1
2023-04-22T01:59:15.160Z,1012.1
2023-04-22T02:00:31.626Z,1012.1
2023-04-22T02:01:48.112Z,1012.1
2023-04-22T02:03:04.599Z,1012.1
2023-04-22T02:04:21.063Z,1012
2023-04-22T02:05:37.552Z,1012
2023-04-22T02:06:54.034Z,1012
2023-04-22T02:08:10.518Z,1012
2023-04-22T02:09:26.986Z,1012
2023-04-22T02:10:43.465Z,1011.9
2023-04-22T02:11:59.946Z,1011.9
2023-04-22T02:13:16.435Z,1011.9
2023-04-22T02:14:32.183Z,1011.9
2023-04-22T02:15:48.666Z,1011.9
2023-04-22T02:17:05.142Z,1011.9
2023-04-22T02:18:21.627Z,1011.8
2023-04-22T02:19:38.126Z,1011.8
2023-04-22T02:20:54.583Z,1011.8
2023-04-22T02:22:11.063Z,1011.8
2023-04-22T02:23:27.543Z,1011.8
2023-04-22T02:24:44.010Z,1011.8
2023-04-22T02:26:00.492Z,1011.8
2023-04-22T02:27:16.984Z,1011.8
2023-04-22T02:28:33.453Z,1011.8
2023-04-22T02:31:06.000Z,1011.8
2023-04-22T02:32:22.901Z,1011.8
2023-04-22T02:33:38.674Z,1011.8
2023-04-22T02:34:55.116Z,1011.8
2023-04-22T02:36:11.600Z,1011.8
2023-04-22T02:37:28.076Z,1011.8
2023-04-22T02:38:44.594Z,1011.8
2023-04-22T02:40:01.034Z,1011.7
2023-04-22T02:41:17.515Z,1011.7
2023-04-22T02:42:34.008Z,1011.7
2023-04-22T02:43:50.476Z,1011.7
2023-04-22T02:45:06.972Z,1011.7
2023-04-22T02:46:23.448Z,1011.6
2023-04-22T02:47:39.928Z,1011.7
2023-04-22T02:48:56.404Z,1011.7
2023-04-22T02:50:12.157Z,1011.6
2023-04-22T02:51:28.626Z,1011.6
2023-04-22T02:52:45.111Z,1011.6
2023-04-22T02:54:01.592Z,1011.6
2023-04-22T02:55:18.063Z,1011.6
2023-04-22T02:56:34.543Z,1011.6
2023-04-22T02:57:51.061Z,1011.6
2023-04-22T02:59:07.501Z,1011.6
2023-04-22T03:00:23.993Z,1011.7
2023-04-22T03:01:40.460Z,1011.6
2023-04-22T03:02:56.945Z,1011.7
2023-04-22T03:04:13.429Z,1011.7
2023-04-22T03:05:29.941Z,1011.7
2023-04-22T03:06:45.661Z,1011.7
2023-04-22T03:09:18.623Z,1011.7
2023-04-22T03:10:35.093Z,1011.6
2023-04-22T03:11:51.573Z,1011.6
2023-04-22T03:13:08.053Z,1011.6
2023-04-22T03:14:24.571Z,1011.6
2023-04-22T03:15:41.030Z,1011.6
2023-04-22T03:16:57.508Z,1011.6
2023-04-22T03:18:13.984Z,1011.6
2023-04-22T03:19:30.458Z,1011.6
2023-04-22T03:20:46.939Z,1011.6
2023-04-22T03:22:03.431Z,1011.6
2023-04-22T03:23:19.164Z,1011.5
2023-04-22T03:24:35.680Z,1011.6
2023-04-22T03:25:52.133Z,1011.5
2023-04-22T03:27:08.614Z,1011.6
2023-04-22T03:28:25.097Z,1011.6
2023-04-22T03:29:41.576Z,1011.6
2023-04-22T03:30:58.053Z,1011.5
2023-04-22T03:32:14.533Z,1011.6
2023-04-22T03:33:31.040Z,1011.6
2023-04-22T03:34:47.483Z,1011.6
2023-04-22T03:36:03.974Z,1011.6
2023-04-22T03:37:20.438Z,1011.6
2023-04-22T03:38:36.919Z,1011.6
2023-04-22T03:39:53.407Z,1011.6
2023-04-22T03:41:09.889Z,1011.6
2023-04-22T03:42:25.669Z,1011.6
2023-04-22T03:43:42.116Z,1011.6
2023-04-22T03:44:57.901Z,1011.6
2023-04-22T03:47:30.861Z,1011.6
2023-04-22T03:48:47.348Z,1011.6
2023-04-22T03:50:03.824Z,1011.6
2023-04-22T03:51:20.302Z,1011.6
2023-04-22T03:52:36.776Z,1011.6
2023-04-22T03:53:53.272Z,1011.6
2023-04-22T03:55:09.748Z,1011.6
2023-04-22T03:56:26.216Z,1011.6
2023-04-22T03:57:42.708Z,1011.6
2023-04-22T03:58:59.179Z,1011.6
2023-04-22T04:00:15.698Z,1011.6
2023-04-22T04:01:31.415Z,1011.6
2023-04-22T04:02:47.897Z,1011.6
2023-04-22T04:04:04.379Z,1011.6
2023-04-22T04:05:20.851Z,1011.6
2023-04-22T04:06:37.335Z,1011.6
2023-04-22T04:07:53.817Z,1011.6
2023-04-22T04:09:10.289Z,1011.7
2023-04-22T04:10:26.778Z,1011.6
2023-04-22T04:11:43.250Z,1011.6
2023-04-22T04:12:59.737Z,1011.6
2023-04-22T04:14:16.210Z,1011.6
2023-04-22T04:15:32.696Z,1011.6
2023-04-22T04:16:49.179Z,1011.6
2023-04-22T04:18:04.922Z,1011.6
2023-04-22T04:19:21.390Z,1011.7
2023-04-22T04:20:37.879Z,1011.6
2023-04-22T04:21:54.350Z,1011.6
2023-04-22T04:23:10.874Z,1011.6
2023-04-22T04:25:43.794Z,1011.7
2023-04-22T04:27:00.282Z,1011.6
2023-04-22T04:28:16.752Z,1011.6
2023-04-22T04:29:33.237Z,1011.6
2023-04-22T04:30:49.717Z,1011.6
2023-04-22T04:32:06.196Z,1011.6
2023-04-22T04:33:22.689Z,1011.6
2023-04-22T04:34:38.428Z,1011.6
2023-04-22T04:35:54.903Z,1011.6
2023-04-22T04:37:11.383Z,1011.6
2023-04-22T04:38:27.858Z,1011.6
2023-04-22T04:39:44.340Z,1011.6
2023-04-22T04:41:00.838Z,1011.6
2023-04-22T04:42:17.306Z,1011.6
2023-04-22T04:43:33.777Z,1011.6
2023-04-22T04:44:50.271Z,1011.6
2023-04-22T04:46:06.751Z,1011.6
2023-04-22T04:47:23.217Z,1011.6
2023-04-22T04:48:39.709Z,1011.6
2023-04-22T04:49:56.197Z,1011.6
2023-04-22T04:51:11.971Z,1011.6
2023-04-22T04:52:28.414Z,1011.6
2023-04-22T04:53:44.894Z,1011.6
2023-04-22T04:55:01.367Z,1011.7
2023-04-22T04:56:17.853Z,1011.6
2023-04-22T04:57:34.333Z,1011.6
2023-04-22T04:58:50.822Z,1011.7
2023-04-22T05:00:07.331Z,1011.7
2023-04-22T05:01:23.778Z,1011.6
2023-04-22T05:03:56.733Z,1011.6
2023-04-22T05:05:13.251Z,1011.7
2023-04-22T05:06:29.704Z,1011.7
2023-04-22T05:07:45.448Z,1011.7
2023-04-22T05:09:01.928Z,1011.7
2023-04-22T05:10:18.412Z,1011.7
2023-04-22T05:11:34.881Z,1011.6
2023-04-22T05:12:51.370Z,1011.6
2023-04-22T05:14:07.854Z,1011.6
2023-04-22T05:15:24.313Z,1011.6
2023-04-22T05:16:40.797Z,1011.6
2023-04-22T05:17:57.291Z,1011.6
2023-04-22T05:19:13.764Z,1011.6
2023-04-22T05:20:30.252Z,1011.6
2023-04-22T05:21:46.730Z,1011.6
2023-04-22T05:23:03.199Z,1011.6
2023-04-22T05:25:35.424Z,1011.6
2023-04-22T05:26:51.903Z,1011.6
2023-04-22T05:28:08.389Z,1011.6
2023-04-22T05:29:24.880Z,1011.7
2023-04-22T05:30:41.352Z,1011.6
2023-04-22T05:31:57.838Z,1011.6
2023-04-22T05:33:14.307Z,1011.7
2023-04-22T05:34:30.790Z,1011.6
2023-04-22T05:35:47.273Z,1011.6
2023-04-22T05:37:03.740Z,1011.6
2023-04-22T05:38:20.223Z,1011.6
2023-04-22T05:39:36.715Z,1011.6
2023-04-22T05:42:08.933Z,1011.6
2023-04-22T05:43:25.424Z,1011.6
2023-04-22T05:44:41.897Z,1011.6
2023-04-22T05:45:58.417Z,1011.6
2023-04-22T05:47:14.859Z,1011.7
2023-04-22T05:48:31.342Z,1011.6
2023-04-22T05:49:47.823Z,1011.6
2023-04-22T05:51:04.295Z,1011.6
2023-04-22T05:52:20.776Z,1011.6
2023-04-22T05:53:37.267Z,1011.7
2023-04-22T05:54:53.735Z,1011.6
2023-04-22T05:56:10.215Z,1011.6
2023-04-22T05:57:26.830Z,1011.6
2023-04-22T05:58:43.308Z,1011.6
2023-04-22T05:59:59.818Z,1011.7
2023-04-22T06:01:16.251Z,1011.7
2023-04-22T06:02:32.744Z,1011.7
2023-04-22T06:03:49.227Z,1011.7
2023-04-22T06:05:05.694Z,1011.7
2023-04-22T06:06:22.170Z,1011.6
2023-04-22T06:07:38.657Z,1011.6
2023-04-22T06:08:55.141Z,1011.6
2023-04-22T06:10:11.610Z,1011.6
2023-04-22T06:11:28.090Z,1011.6
2023-04-22T06:12:44.578Z,1011.6
2023-04-22T06:14:00.321Z,1011.7
2023-04-22T06:15:16.804Z,1011.7
2023-04-22T06:16:33.283Z,1011.7
2023-04-22T06:17:49.807Z,1011.7
2023-04-22T06:20:22.723Z,1011.7
2023-04-22T06:21:39.208Z,1011.7
2023-04-22T06:22:55.688Z,1011.7
2023-04-22T06:24:12.162Z,1011.7
2023-04-22T06:25:28.638Z,1011.7
2023-04-22T06:26:45.123Z,1011.7
2023-04-22T06:28:01.600Z,1011.7
2023-04-22T06:29:18.081Z,1011.7
2023-04-22T06:30:33.835Z,1011.7
2023-04-22T06:31:50.319Z,1011.8
2023-04-22T06:33:06.787Z,1011.7
2023-04-22T06:34:23.275Z,1011.7
2023-04-22T06:35:39.761Z,1011.7
2023-04-22T06:38:12.712Z,1011.6
2023-04-22T06:39:29.204Z,1011.7
2023-04-22T06:40:45.716Z,1011.7
2023-04-22T06:42:02.164Z,1011.7
2023-04-22T06:43:18.635Z,1011.7
2023-04-22T06:44:35.106Z,1011.7
2023-04-22T06:45:51.597Z,1011.7
2023-04-22T06:47:07.338Z,1011.6
2023-04-22T06:48:23.818Z,1011.6
2023-04-22T06:49:40.310Z,1011.6
2023-04-22T06:50:56.791Z,1011.6
2023-04-22T06:52:13.268Z,1011.6
2023-04-22T06:53:29.750Z,1011.6
2023-04-22T06:54:46.233Z,1011.6
2023-04-22T06:56:02.697Z,1011.6
2023-04-22T06:58:35.662Z,1011.5
2023-04-22T06:59:52.184Z,1011.5
2023-04-22T07:01:08.630Z,1011.5
2023-04-22T07:02:25.108Z,1011.5
2023-04-22T07:03:40.858Z,1011.5
2023-04-22T07:04:57.335Z,1011.5
2023-04-22T07:06:13.810Z,1011.5
2023-04-22T07:07:30.288Z,1011.5
2023-04-22T07:08:46.813Z,1011.5
2023-04-22T07:10:03.249Z,1011.5
2023-04-22T07:11:19.731Z,1011.5
2023-04-22T07:12:36.212Z,1011.5
2023-04-22T07:13:52.700Z,1011.6
2023-04-22T07:15:09.168Z,1011.6
2023-04-22T07:16:25.650Z,1011.6
2023-04-22T07:17:42.135Z,1011.6
2023-04-22T07:18:58.617Z,1011.6
2023-04-22T07:20:14.366Z,1011.6
2023-04-22T07:21:30.842Z,1011.6
2023-04-22T07:22:47.363Z,1011.6
2023-04-22T07:24:03.798Z,1011.6
2023-04-22T07:25:20.273Z,1011.6
2023-04-22T07:26:36.803Z,1011.6
2023-04-22T07:27:53.246Z,1011.6
2023-04-22T07:29:09.717Z,1011.5
2023-04-22T07:30:26.192Z,1011.6
2023-04-22T07:31:42.672Z,1011.6
2023-04-22T07:32:59.172Z,1011.6
2023-04-22T07:34:15.642Z,1011.6
2023-04-22T07:36:48.599Z,1011.6
2023-04-22T07:38:04.345Z,1011.6
2023-04-22T07:39:20.826Z,1011.6
2023-04-22T07:40:37.307Z,1011.5
2023-04-22T07:41:53.796Z,1011.5
2023-04-22T07:43:10.277Z,1011.5
2023-04-22T07:44:26.757Z,1011.5
2023-04-22T07:45:43.273Z,1011.5
2023-04-22T07:46:59.703Z,1011.5
2023-04-22T07:48:16.183Z,1011.5
2023-04-22T07:49:32.670Z,1011.5
2023-04-22T07:50:49.143Z,1011.4
2023-04-22T07:52:05.628Z,1011.5
2023-04-22T07:53:22.119Z,1011.4
2023-04-22T07:54:37.869Z,1011.4
2023-04-22T07:55:54.341Z,1011.4
2023-04-22T07:57:10.819Z,1011.4
2023-04-22T07:58:27.304Z,1011.4
2023-04-22T07:59:43.778Z,1011.4
2023-04-22T08:00:59.574Z,1011.3
2023-04-22T08:02:16.053Z,1011.3
2023-04-22T08:03:32.529Z,1011.3
2023-04-22T08:04:49.001Z,1011.3
2023-04-22T08:06:05.495Z,1011.3
2023-04-22T08:07:21.968Z,1011.2
2023-04-22T08:08:38.492Z,1011.2
2023-04-22T08:09:54.934Z,1011.2
2023-04-22T08:11:11.417Z,1011.1
2023-04-22T08:12:27.898Z,1011.2
2023-04-22T08:13:44.369Z,1011.1
2023-04-22T08:15:00.848Z,1011.1
2023-04-22T08:16:17.332Z,1011.1
2023-04-22T08:17:33.932Z,1011.1
2023-04-22T08:18:50.417Z,1011.1
2023-04-22T08:20:06.882Z,1011.1
2023-04-22T08:21:23.372Z,1011.1
2023-04-22T08:22:39.848Z,1011.1
2023-04-22T08:23:56.339Z,1011.1
2023-04-22T08:25:12.819Z,1011.1
2023-04-22T08:26:29.281Z,1011.1
2023-04-22T08:27:45.770Z,1011.1
2023-04-22T08:29:02.241Z,1011.1
2023-04-22T08:30:18.727Z,1011
2023-04-22T08:31:35.214Z,1011.1
2023-04-22T08:32:51.694Z,1011.1
2023-04-22T08:34:07.443Z,1011
2023-04-22T08:35:23.914Z,1011
2023-04-22T08:36:40.391Z,1011
2023-04-22T08:37:56.875Z,1011
2023-04-22T08:39:13.363Z,1011
2023-04-22T08:40:29.828Z,1011
2023-04-22T08:41:46.328Z,1011
2023-04-22T08:43:02.803Z,1011
2023-04-22T08:46:52.236Z,1011.1
2023-04-22T08:48:08.727Z,1011
2023-04-22T08:50:41.000Z,1011
2023-04-22T08:51:57.499Z,1011
2023-04-22T08:53:13.265Z,1011
2023-04-22T08:54:29.732Z,1011
2023-04-22T08:55:46.219Z,1011
2023-04-22T08:57:02.699Z,1011
2023-04-22T09:00:52.134Z,1011
2023-04-22T09:02:08.625Z,1011
2023-04-22T09:03:25.103Z,1011
2023-04-22T09:04:41.587Z,1011
2023-04-22T09:07:14.539Z,1011
2023-04-22T09:08:31.008Z,1010.9
2023-04-22T09:09:46.857Z,1010.9
2023-04-22T09:11:02.592Z,1010.9
2023-04-22T09:12:19.069Z,1010.9
2023-04-22T09:13:35.559Z,1010.9
2023-04-22T09:14:52.027Z,1010.9
2023-04-22T09:17:25.002Z,1010.9
2023-04-22T09:18:41.472Z,1010.9
2023-04-22T09:19:57.948Z,1010.9
2023-04-22T09:21:14.481Z,1010.9
2023-04-22T09:22:30.911Z,1010.9
2023-04-22T09:25:03.868Z,1010.8
2023-04-22T09:26:20.345Z,1010.8
2023-04-22T09:27:36.114Z,1010.8
2023-04-22T09:28:52.581Z,1010.8
2023-04-22T09:30:09.075Z,1010.7
2023-04-22T09:31:25.555Z,1010.7
2023-04-22T09:32:42.035Z,1010.7
2023-04-22T09:33:58.498Z,1010.7
2023-04-22T09:35:14.983Z,1010.7
2023-04-22T09:36:31.460Z,1010.7
2023-04-22T09:37:47.943Z,1010.7
2023-04-22T09:39:04.427Z,1010.7
2023-04-22T09:41:37.391Z,1010.7
2023-04-22T09:42:53.858Z,1010.7
2023-04-22T09:44:09.608Z,1010.6
2023-04-22T09:45:26.098Z,1010.6
2023-04-22T09:46:42.575Z,1010.6
2023-04-22T09:47:59.047Z,1010.6
2023-04-22T09:49:15.527Z,1010.6
2023-04-22T09:50:32.024Z,1010.6
2023-04-22T09:51:47.847Z,1010.5
2023-04-22T09:53:03.639Z,1010.5
2023-04-22T09:54:20.076Z,1010.6
2023-04-22T09:55:36.561Z,1010.5
2023-04-22T09:56:53.037Z,1010.5
2023-04-22T09:58:09.559Z,1010.4
2023-04-22T09:59:25.998Z,1010.4
2023-04-22T10:00:42.478Z,1010.4
2023-04-22T10:01:58.955Z,1010.3
2023-04-22T10:03:15.435Z,1010.4
2023-04-22T10:04:31.914Z,1010.3
2023-04-22T10:05:47.741Z,1010.3
2023-04-22T10:07:04.214Z,1010.4
2023-04-22T10:08:19.969Z,1010.4
2023-04-22T10:10:52.942Z,1010.3
2023-04-22T10:12:09.412Z,1010.3
2023-04-22T10:13:25.884Z,1010.2
2023-04-22T10:14:42.377Z,1010.3
2023-04-22T10:15:58.854Z,1010.2
2023-04-22T10:17:15.343Z,1010.3
2023-04-22T10:18:31.808Z,1010.2
2023-04-22T10:19:48.282Z,1010.2
2023-04-22T10:21:04.819Z,1010.2
2023-04-22T10:22:21.256Z,1010.2
2023-04-22T10:23:37.730Z,1010.1
2023-04-22T10:24:53.472Z,1010.2
2023-04-22T10:26:09.956Z,1010.1
2023-04-22T10:27:26.446Z,1010.1
2023-04-22T10:28:42.929Z,1010.1
2023-04-22T10:29:59.448Z,1010
2023-04-22T10:31:15.873Z,1010
2023-04-22T10:32:32.369Z,1010
2023-04-22T10:33:48.840Z,1010
2023-04-22T10:35:05.325Z,1010
2023-04-22T10:36:21.807Z,1010
2023-04-22T10:37:38.284Z,1010
2023-04-22T10:38:54.808Z,1010
2023-04-22T10:40:11.239Z,1009.9
2023-04-22T10:41:26.989Z,1009.9
2023-04-22T10:42:43.468Z,1009.9
2023-04-22T10:43:59.940Z,1009.9
2023-04-22T10:45:16.420Z,1009.9
2023-04-22T10:46:32.906Z,1009.9
2023-04-22T10:49:05.917Z,1009.9
2023-04-22T10:50:22.358Z,1009.9
2023-04-22T10:51:38.831Z,1009.9
2023-04-22T10:52:55.314Z,1009.9
2023-04-22T10:54:11.790Z,1009.9
2023-04-22T10:55:28.277Z,1009.9
2023-04-22T10:56:44.754Z,1009.8
2023-04-22T10:58:00.492Z,1009.8
2023-04-22T10:59:16.976Z,1009.7
2023-04-22T11:00:33.459Z,1009.8
2023-04-22T11:01:49.942Z,1009.8
2023-04-22T11:03:06.409Z,1009.8
2023-04-22T11:04:22.889Z,1009.8
2023-04-22T11:05:39.382Z,1009.8
2023-04-22T11:06:55.906Z,1009.8
2023-04-22T11:08:12.343Z,1009.8
2023-04-22T11:09:28.816Z,1009.8
2023-04-22T11:10:45.300Z,1009.8
2023-04-22T11:12:01.776Z,1009.8
2023-04-22T11:13:18.260Z,1009.7
2023-04-22T11:14:34.015Z,1009.7
2023-04-22T11:15:50.000Z,1009.7
2023-04-22T11:17:06.968Z,1009.7
2023-04-22T11:18:23.495Z,1009.7
2023-04-22T11:19:39.928Z,1009.7
2023-04-22T11:20:56.413Z,1009.6
2023-04-22T11:22:12.882Z,1009.6
2023-04-22T11:23:29.364Z,1009.6
2023-04-22T11:24:45.836Z,1009.6
2023-04-22T11:27:18.815Z,1009.6
2023-04-22T11:28:35.286Z,1009.6
2023-04-22T11:29:51.768Z,1009.6
2023-04-22T11:31:07.521Z,1009.6
2023-04-22T11:32:24.002Z,1009.6
2023-04-22T11:33:40.468Z,1009.6
2023-04-22T11:34:57.004Z,1009.6
2023-04-22T11:37:29.917Z,1009.5
2023-04-22T11:38:46.387Z,1009.5
2023-04-22T11:40:02.867Z,1009.5
2023-04-22T11:41:19.362Z,1009.4
2023-04-22T11:42:35.837Z,1009.4
2023-04-22T11:43:52.315Z,1009.5
2023-04-22T11:45:08.804Z,1009.4
2023-04-22T11:46:25.279Z,1009.4
2023-04-22T11:47:41.017Z,1009.4
2023-04-22T11:48:57.497Z,1009.3
2023-04-22T11:50:13.990Z,1009.4
2023-04-22T11:51:30.462Z,1009.4
2023-04-22T11:52:46.933Z,1009.4
2023-04-22T11:54:03.424Z,1009.4
2023-04-22T11:55:19.907Z,1009.4
2023-04-22T11:56:36.390Z,1009.3
2023-04-22T11:57:52.870Z,1009.3
2023-04-22T11:59:09.333Z,1009.3
2023-04-22T12:00:25.813Z,1009.3
2023-04-22T12:01:42.291Z,1009.2
2023-04-22T12:02:58.778Z,1009.3
2023-04-22T12:05:31.018Z,1009.3
2023-04-22T12:06:47.494Z,1009.3
2023-04-22T12:08:03.963Z,1009.3
2023-04-22T12:09:20.455Z,1009.3
2023-04-22T12:10:36.982Z,1009.3
2023-04-22T12:11:53.406Z,1009.2
2023-04-22T12:13:09.884Z,1009.2
2023-04-22T12:14:26.376Z,1009.3
2023-04-22T12:15:42.860Z,1009.2
2023-04-22T12:16:58.634Z,1009.2
2023-04-22T12:18:15.112Z,1009.2
2023-04-22T12:19:31.610Z,1009.2
2023-04-22T12:20:48.076Z,1009.2
2023-04-22T12:22:04.559Z,1009.2
2023-04-22T12:23:21.030Z,1009.2
2023-04-22T12:24:37.521Z,1009.2
2023-04-22T12:25:53.990Z,1009.1
2023-04-22T12:27:10.470Z,1009.1
2023-04-22T12:28:26.965Z,1009.1
2023-04-22T12:29:43.433Z,1009.1
2023-04-22T12:30:59.914Z,1009
2023-04-22T12:32:16.388Z,1009
2023-04-22T12:33:32.139Z,1009
2023-04-22T12:34:48.624Z,1009.1
2023-04-22T12:36:05.105Z,1009.1
2023-04-22T12:37:21.586Z,1009.1
2023-04-22T12:38:38.121Z,1009.1
2023-04-22T12:39:54.543Z,1009.1
2023-04-22T12:41:11.032Z,1009.1
2023-04-22T12:46:16.955Z,1009
2023-04-22T12:47:32.771Z,1009
2023-04-22T12:48:48.529Z,1008.9
2023-04-22T12:50:05.012Z,1008.9
2023-04-22T12:51:21.488Z,1008.9
2023-04-22T12:52:37.963Z,1008.9
2023-04-22T12:53:54.438Z,1008.9
2023-04-22T12:55:10.932Z,1008.9
2023-04-22T12:56:27.411Z,1008.9
2023-04-22T12:57:43.888Z,1008.9
2023-04-22T12:59:00.361Z,1008.9
2023-04-22T13:00:16.854Z,1008.9
2023-04-22T13:01:32.675Z,1009
2023-04-22T13:02:48.429Z,1008.9
2023-04-22T13:04:04.903Z,1008.8
2023-04-22T13:05:21.386Z,1008.8
2023-04-22T13:06:37.867Z,1008.8
2023-04-22T13:09:10.830Z,1008.8
2023-04-22T13:10:27.299Z,1008.8
2023-04-22T13:11:43.792Z,1008.8
2023-04-22T13:13:00.258Z,1008.8
2023-04-22T13:14:16.740Z,1008.7
2023-04-22T13:15:33.222Z,1008.7
2023-04-22T13:18:06.184Z,1008.7
2023-04-22T13:19:22.071Z,1008.7
2023-04-22T13:21:54.254Z,1008.6
2023-04-22T13:23:10.725Z,1008.7
2023-04-22T13:24:27.198Z,1008.7
2023-04-22T13:25:43.692Z,1008.7
2023-04-22T13:27:00.158Z,1008.6
2023-04-22T13:28:16.640Z,1008.6
2023-04-22T13:29:33.115Z,1008.6
2023-04-22T13:32:06.075Z,1008.6
2023-04-22T13:33:22.558Z,1008.5
2023-04-22T13:34:39.053Z,1008.5
2023-04-22T13:35:55.525Z,1008.4
2023-04-22T13:37:11.266Z,1008.5
2023-04-22T13:38:27.809Z,1008.4
2023-04-22T13:41:00.717Z,1008.4
2023-04-22T13:42:16.000Z,1008.4
2023-04-22T13:43:32.297Z,1008.4
2023-04-22T13:46:05.254Z,1008.4
2023-04-22T13:47:21.788Z,1008.4
2023-04-22T13:48:38.211Z,1008.3
2023-04-22T13:49:54.682Z,1008.3
2023-04-22T13:51:11.174Z,1008.3
2023-04-22T13:52:27.659Z,1008.3
2023-04-22T13:53:44.122Z,1008.2
2023-04-22T13:55:00.602Z,1008.2
2023-04-22T13:56:17.148Z,1008.3
2023-04-22T13:58:50.048Z,1008.2
2023-04-22T14:00:05.793Z,1008.1
2023-04-22T14:01:22.289Z,1008.1
2023-04-22T14:03:55.250Z,1008
2023-04-22T14:05:11.777Z,1008.1
2023-04-22T14:06:28.190Z,1008.1
2023-04-22T14:09:01.166Z,1008.1
2023-04-22T14:10:17.647Z,1008.1
2023-04-22T14:11:34.130Z,1008.1
2023-04-22T14:12:50.591Z,1008
2023-04-22T14:14:07.089Z,1008.1
2023-04-22T14:15:23.551Z,1008
2023-04-22T14:16:39.306Z,1007.9
2023-04-22T14:17:55.791Z,1007.9
2023-04-22T14:19:12.257Z,1007.9
2023-04-22T14:20:28.751Z,1007.9
2023-04-22T14:21:45.227Z,1007.9
2023-04-22T14:24:18.185Z,1007.9
2023-04-22T14:25:34.667Z,1007.8
2023-04-22T14:26:51.155Z,1007.9
2023-04-22T14:29:24.104Z,1007.9
2023-04-22T14:30:40.587Z,1007.8
2023-04-22T14:31:57.069Z,1007.8
2023-04-22T14:33:12.873Z,1007.8
2023-04-22T14:34:29.291Z,1007.8
2023-04-22T14:35:45.765Z,1007.8
2023-04-22T14:38:18.743Z,1007.7
2023-04-22T14:39:35.212Z,1007.7
2023-04-22T14:40:51.693Z,1007.7
2023-04-22T14:42:08.172Z,1007.7
2023-04-22T14:43:24.652Z,1007.6
2023-04-22T14:44:41.139Z,1007.6
2023-04-22T14:45:57.610Z,1007.6
2023-04-22T14:47:14.097Z,1007.7
2023-04-22T14:48:30.578Z,1007.7
2023-04-22T14:49:46.334Z,1007.7
2023-04-22T14:51:02.810Z,1007.7
2023-04-22T14:52:19.290Z,1007.6
2023-04-22T14:53:35.761Z,1007.7
2023-04-22T14:54:52.250Z,1007.6
2023-04-22T14:56:08.132Z,1007.5
2023-04-22T14:57:23.815Z,1007.5
2023-04-22T14:58:40.294Z,1007.5
2023-04-22T14:59:56.785Z,1007.5
2023-04-22T15:01:13.256Z,1007.5
2023-04-22T15:02:29.750Z,1007.5
2023-04-22T15:03:46.219Z,1007.5
2023-04-22T15:05:02.700Z,1007.5
2023-04-22T15:06:19.181Z,1007.4
2023-04-22T15:07:35.667Z,1007.4
2023-04-22T15:08:52.150Z,1007.4
2023-04-22T15:10:07.965Z,1007.4
2023-04-22T15:11:23.725Z,1007.3
2023-04-22T15:12:40.201Z,1007.4
2023-04-22T15:13:56.741Z,1007.3
2023-04-22T15:15:13.170Z,1007.4
2023-04-22T15:16:29.637Z,1007.4
2023-04-22T15:17:46.123Z,1007.3
2023-04-22T15:19:02.597Z,1007.3
2023-04-22T15:20:19.089Z,1007.3
2023-04-22T15:21:35.571Z,1007.3
2023-04-22T15:22:52.039Z,1007.3
2023-04-22T15:24:08.580Z,1007.3
2023-04-22T15:25:24.993Z,1007.3
2023-04-22T15:26:41.478Z,1007.2
2023-04-22T15:27:57.236Z,1007.3
2023-04-22T15:29:13.712Z,1007.3
2023-04-22T15:30:30.191Z,1007.2
2023-04-22T15:31:46.677Z,1007.2
2023-04-22T15:33:03.154Z,1007.2
2023-04-22T15:34:19.638Z,1007.2
2023-04-22T15:35:36.109Z,1007.2
2023-04-22T15:36:52.596Z,1007.2
2023-04-22T15:38:09.060Z,1007.2
2023-04-22T15:39:25.553Z,1007.2
2023-04-22T15:40:42.024Z,1007.1
2023-04-22T15:41:58.568Z,1007.2
2023-04-22T15:43:14.995Z,1007.2
2023-04-22T15:44:30.743Z,1007.2
2023-04-22T15:45:47.214Z,1007.2
2023-04-22T15:47:03.700Z,1007.1
2023-04-22T15:48:20.170Z,1007.1
2023-04-22T15:49:36.657Z,1007.1
2023-04-22T15:50:53.196Z,1007
2023-04-22T15:52:09.606Z,1007.1
2023-04-22T15:54:42.576Z,1007
2023-04-22T15:55:59.059Z,1007
2023-04-22T15:57:15.543Z,1006.9
2023-04-22T15:58:32.022Z,1007
2023-04-22T15:59:48.556Z,1006.9
2023-04-22T16:01:04.233Z,1006.9
2023-04-22T16:02:20.718Z,1006.9
2023-04-22T16:03:37.199Z,1006.9
2023-04-22T16:04:53.674Z,1006.9
2023-04-22T16:06:10.169Z,1006.8
2023-04-22T16:07:26.653Z,1006.8
2023-04-22T16:08:43.132Z,1006.9
2023-04-22T16:09:59.597Z,1006.8
2023-04-22T16:11:16.075Z,1006.8
2023-04-22T16:12:32.555Z,1006.8
2023-04-22T16:13:49.054Z,1006.8
2023-04-22T16:15:05.516Z,1006.8
2023-04-22T16:16:22.012Z,1006.8
2023-04-22T16:17:37.760Z,1006.7
2023-04-22T16:18:54.293Z,1006.7
2023-04-22T16:20:10.720Z,1006.7
2023-04-22T16:21:27.189Z,1006.8
2023-04-22T16:22:43.733Z,1006.7
2023-04-22T16:24:00.141Z,1006.7
2023-04-22T16:25:16.628Z,1006.7
2023-04-22T16:26:33.113Z,1006.7
2023-04-22T16:27:49.594Z,1006.7
2023-04-22T16:29:06.061Z,1006.7
2023-04-22T16:30:22.559Z,1006.7
2023-04-22T16:31:39.042Z,1006.6
2023-04-22T16:32:55.500Z,1006.6
2023-04-22T16:34:11.310Z,1006.7
2023-04-22T16:35:27.775Z,1006.6
2023-04-22T16:36:44.251Z,1006.6
2023-04-22T16:38:00.745Z,1006.7
2023-04-22T16:39:17.229Z,1006.6
2023-04-22T16:40:33.705Z,1006.7
2023-04-22T16:41:50.170Z,1006.6
2023-04-22T16:43:06.659Z,1006.6
2023-04-22T16:44:23.144Z,1006.6
2023-04-22T16:45:39.681Z,1006.6
2023-04-22T16:46:56.090Z,1006.6
2023-04-22T16:48:12.573Z,1006.6
2023-04-22T16:49:29.060Z,1006.6
2023-04-22T16:50:44.808Z,1006.5
2023-04-22T16:52:01.278Z,1006.6
2023-04-22T16:53:17.756Z,1006.6
2023-04-22T16:54:34.244Z,1006.6